sensor_id;sensor_type;location;lat;lon;timestamp;pressure;altitude;pressure_sealevel;temperature;humidity
27144;BME280;14672;50.250;8.312;2023-07-31T00:01:55;98611.81;;;20.79;61.82
27144;BME280;14672;50.250;8.312;2023-07-31T00:04:21;98610.81;;;20.71;61.91
27144;BME280;14672;50.250;8.312;2023-07-31T00:06:46;98615.28;;;20.72;62.59
27144;BME280;14672;50.250;8.312;2023-07-31T00:09:12;98616.09;;;20.67;62.92
27144;BME280;14672;50.250;8.312;2023-07-31T00:11:38;98615.78;;;20.76;62.71
27144;BME280;14672;50.250;8.312;2023-07-31T00:14:04;98620.28;;;20.71;62.67
27144;BME280;14672;50.250;8.312;2023-07-31T00:16:29;98615.84;;;20.70;62.57
27144;BME280;14672;50.250;8.312;2023-07-31T00:18:58;98606.69;;;20.66;63.76
27144;BME280;14672;50.250;8.312;2023-07-31T00:21:24;98602.72;;;20.69;63.66
27144;BME280;14672;50.250;8.312;2023-07-31T00:23:50;98605.41;;;20.61;64.14
27144;BME280;14672;50.250;8.312;2023-07-31T00:26:15;98605.41;;;20.56;64.31
27144;BME280;14672;50.250;8.312;2023-07-31T00:28:41;98606.22;;;20.56;64.04
27144;BME280;14672;50.250;8.312;2023-07-31T00:31:07;98595.75;;;20.53;64.08
27144;BME280;14672;50.250;8.312;2023-07-31T00:33:34;98608.31;;;20.50;64.66
27144;BME280;14672;50.250;8.312;2023-07-31T00:36:00;98610.13;;;20.59;64.44
27144;BME280;14672;50.250;8.312;2023-07-31T00:38:26;98604.47;;;20.37;64.69
27144;BME280;14672;50.250;8.312;2023-07-31T00:40:52;98600.97;;;20.55;64.52
27144;BME280;14672;50.250;8.312;2023-07-31T00:43:17;98598.66;;;20.42;65.19
27144;BME280;14672;50.250;8.312;2023-07-31T00:45:44;98601.91;;;20.22;65.79
27144;BME280;14672;50.250;8.312;2023-07-31T00:48:10;98601.81;;;20.44;65.32
27144;BME280;14672;50.250;8.312;2023-07-31T00:50:37;98591.06;;;20.45;65.53
27144;BME280;14672;50.250;8.312;2023-07-31T00:53:03;98595.53;;;20.46;65.37
27144;BME280;14672;50.250;8.312;2023-07-31T00:55:29;98595.88;;;20.26;66.30
27144;BME280;14672;50.250;8.312;2023-07-31T00:57:56;98586.66;;;20.27;66.05
27144;BME280;14672;50.250;8.312;2023-07-31T01:00:22;98585.88;;;20.38;65.61
27144;BME280;14672;50.250;8.312;2023-07-31T01:02:49;98579.09;;;20.30;66.28
27144;BME280;14672;50.250;8.312;2023-07-31T01:05:16;98578.56;;;20.26;67.09
27144;BME280;14672;50.250;8.312;2023-07-31T01:08:27;98576.19;;;20.30;66.52
27144;BME280;14672;50.250;8.312;2023-07-31T01:11:00;98571.72;;;20.23;66.80
27144;BME280;14672;50.250;8.312;2023-07-31T01:13:28;98574.09;;;20.30;66.94
27144;BME280;14672;50.250;8.312;2023-07-31T01:15:54;98579.84;;;20.25;67.02
27144;BME280;14672;50.250;8.312;2023-07-31T01:18:20;98575.69;;;20.20;66.87
27144;BME280;14672;50.250;8.312;2023-07-31T01:20:57;98567.53;;;20.24;67.29
27144;BME280;14672;50.250;8.312;2023-07-31T01:26:26;98577.56;;;20.12;67.83
27144;BME280;14672;50.250;8.312;2023-07-31T01:31:48;98565.97;;;20.23;66.89
27144;BME280;14672;50.250;8.312;2023-07-31T01:34:17;98559.72;;;20.13;66.55
27144;BME280;14672;50.250;8.312;2023-07-31T01:36:44;98541.84;;;20.26;66.16
27144;BME280;14672;50.250;8.312;2023-07-31T01:39:10;98540.00;;;20.23;65.62
27144;BME280;14672;50.250;8.312;2023-07-31T01:41:38;98540.00;;;20.29;65.76
27144;BME280;14672;50.250;8.312;2023-07-31T01:44:05;98550.00;;;20.22;65.45
27144;BME280;14672;50.250;8.312;2023-07-31T01:46:31;98544.72;;;20.26;65.74
27144;BME280;14672;50.250;8.312;2023-07-31T01:48:57;98549.44;;;20.29;65.33
27144;BME280;14672;50.250;8.312;2023-07-31T01:51:22;98549.94;;;20.33;65.81
27144;BME280;14672;50.250;8.312;2023-07-31T01:53:51;98551.03;;;20.30;65.18
27144;BME280;14672;50.250;8.312;2023-07-31T01:56:17;98545.25;;;20.30;65.69
27144;BME280;14672;50.250;8.312;2023-07-31T01:58:42;98542.59;;;20.32;66.21
27144;BME280;14672;50.250;8.312;2023-07-31T02:01:08;98549.16;;;20.33;66.20
27144;BME280;14672;50.250;8.312;2023-07-31T02:03:34;98547.59;;;20.32;66.50
27144;BME280;14672;50.250;8.312;2023-07-31T02:06:00;98546.56;;;20.24;66.59
27144;BME280;14672;50.250;8.312;2023-07-31T02:08:25;98547.41;;;20.13;65.82
27144;BME280;14672;50.250;8.312;2023-07-31T02:10:52;98538.94;;;20.26;65.86
27144;BME280;14672;50.250;8.312;2023-07-31T02:13:17;98544.69;;;20.37;65.84
27144;BME280;14672;50.250;8.312;2023-07-31T02:15:43;98542.31;;;20.36;65.05
27144;BME280;14672;50.250;8.312;2023-07-31T02:18:10;98545.69;;;20.40;64.53
27144;BME280;14672;50.250;8.312;2023-07-31T02:20:36;98544.59;;;20.48;63.88
27144;BME280;14672;50.250;8.312;2023-07-31T02:23:02;98548.06;;;20.41;63.21
27144;BME280;14672;50.250;8.312;2023-07-31T02:25:28;98543.00;;;20.53;62.66
27144;BME280;14672;50.250;8.312;2023-07-31T02:27:53;98536.19;;;20.50;63.35
27144;BME280;14672;50.250;8.312;2023-07-31T02:30:19;98539.34;;;20.47;62.54
27144;BME280;14672;50.250;8.312;2023-07-31T02:32:44;98542.03;;;20.75;62.01
27144;BME280;14672;50.250;8.312;2023-07-31T02:35:10;98538.38;;;20.74;62.25
27144;BME280;14672;50.250;8.312;2023-07-31T02:37:42;98533.56;;;20.82;61.59
27144;BME280;14672;50.250;8.312;2023-07-31T02:40:08;98527.59;;;20.75;61.99
27144;BME280;14672;50.250;8.312;2023-07-31T02:42:34;98528.28;;;20.86;61.49
27144;BME280;14672;50.250;8.312;2023-07-31T02:45:00;98526.56;;;20.78;62.13
27144;BME280;14672;50.250;8.312;2023-07-31T02:47:25;98525.16;;;20.84;61.88
27144;BME280;14672;50.250;8.312;2023-07-31T02:49:51;98527.31;;;20.78;61.93
27144;BME280;14672;50.250;8.312;2023-07-31T02:52:17;98527.25;;;20.89;61.56
27144;BME280;14672;50.250;8.312;2023-07-31T02:54:42;98532.75;;;20.87;61.76
27144;BME280;14672;50.250;8.312;2023-07-31T02:57:08;98530.84;;;20.95;61.94
27144;BME280;14672;50.250;8.312;2023-07-31T02:59:34;98531.53;;;20.77;62.42
27144;BME280;14672;50.250;8.312;2023-07-31T03:01:59;98533.56;;;20.82;62.14
27144;BME280;14672;50.250;8.312;2023-07-31T03:04:28;98525.84;;;20.96;62.04
27144;BME280;14672;50.250;8.312;2023-07-31T03:06:54;98527.16;;;20.95;62.04
27144;BME280;14672;50.250;8.312;2023-07-31T03:09:19;98524.34;;;20.89;61.96
27144;BME280;14672;50.250;8.312;2023-07-31T03:11:45;98524.09;;;20.87;62.04
27144;BME280;14672;50.250;8.312;2023-07-31T03:14:14;98514.31;;;20.96;61.89
27144;BME280;14672;50.250;8.312;2023-07-31T03:16:39;98527.44;;;20.97;62.24
27144;BME280;14672;50.250;8.312;2023-07-31T03:19:05;98522.47;;;20.92;62.18
27144;BME280;14672;50.250;8.312;2023-07-31T03:21:31;98517.16;;;21.01;61.85
27144;BME280;14672;50.250;8.312;2023-07-31T03:23:56;98530.81;;;21.01;62.33
27144;BME280;14672;50.250;8.312;2023-07-31T03:26:22;98531.03;;;21.03;62.04
27144;BME280;14672;50.250;8.312;2023-07-31T03:28:48;98530.56;;;20.99;62.17
27144;BME280;14672;50.250;8.312;2023-07-31T03:31:15;98528.75;;;20.96;62.30
27144;BME280;14672;50.250;8.312;2023-07-31T03:33:40;98542.56;;;21.08;61.72
27144;BME280;14672;50.250;8.312;2023-07-31T03:36:06;98536.47;;;20.82;62.53
27144;BME280;14672;50.250;8.312;2023-07-31T03:38:34;98543.69;;;21.00;62.09
27144;BME280;14672;50.250;8.312;2023-07-31T03:41:00;98540.56;;;20.98;62.14
27144;BME280;14672;50.250;8.312;2023-07-31T03:43:26;98531.03;;;21.03;62.16
27144;BME280;14672;50.250;8.312;2023-07-31T03:45:51;98540.06;;;20.94;62.57
27144;BME280;14672;50.250;8.312;2023-07-31T03:48:17;98539.22;;;20.99;62.51
27144;BME280;14672;50.250;8.312;2023-07-31T03:50:43;98535.00;;;21.00;62.25
27144;BME280;14672;50.250;8.312;2023-07-31T03:53:09;98535.50;;;21.04;62.36
27144;BME280;14672;50.250;8.312;2023-07-31T03:55:34;98530.56;;;20.99;62.69
27144;BME280;14672;50.250;8.312;2023-07-31T03:58:00;98532.03;;;20.81;63.46
27144;BME280;14672;50.250;8.312;2023-07-31T04:00:26;98525.06;;;20.95;62.95
27144;BME280;14672;50.250;8.312;2023-07-31T04:02:52;98523.84;;;20.85;63.26
27144;BME280;14672;50.250;8.312;2023-07-31T04:05:18;98517.44;;;20.98;63.04
27144;BME280;14672;50.250;8.312;2023-07-31T04:07:44;98510.41;;;20.93;63.19
27144;BME280;14672;50.250;8.312;2023-07-31T04:10:10;98510.69;;;20.90;63.53
27144;BME280;14672;50.250;8.312;2023-07-31T04:12:35;98506.47;;;20.91;63.65
27144;BME280;14672;50.250;8.312;2023-07-31T04:15:01;98498.56;;;20.97;63.66
27144;BME280;14672;50.250;8.312;2023-07-31T04:17:27;98509.34;;;20.91;63.49
27144;BME280;14672;50.250;8.312;2023-07-31T04:19:53;98508.34;;;20.88;63.61
27144;BME280;14672;50.250;8.312;2023-07-31T04:22:18;98503.25;;;21.00;63.45
27144;BME280;14672;50.250;8.312;2023-07-31T04:24:44;98498.25;;;21.00;63.68
27144;BME280;14672;50.250;8.312;2023-07-31T04:27:10;98496.03;;;20.82;63.98
27144;BME280;14672;50.250;8.312;2023-07-31T04:29:35;98485.47;;;20.90;63.43
27144;BME280;14672;50.250;8.312;2023-07-31T04:32:01;98486.50;;;20.93;63.41
27144;BME280;14672;50.250;8.312;2023-07-31T04:34:27;98481.22;;;20.97;63.45
27144;BME280;14672;50.250;8.312;2023-07-31T04:36:52;98488.31;;;20.96;63.78
27144;BME280;14672;50.250;8.312;2023-07-31T04:39:18;98496.97;;;20.96;63.65
27144;BME280;14672;50.250;8.312;2023-07-31T04:41:44;98484.63;;;20.95;63.64
27144;BME280;14672;50.250;8.312;2023-07-31T04:44:09;98490.91;;;20.99;63.70
27144;BME280;14672;50.250;8.312;2023-07-31T04:46:36;98484.72;;;20.90;63.82
27144;BME280;14672;50.250;8.312;2023-07-31T04:49:03;98493.38;;;20.90;64.18
27144;BME280;14672;50.250;8.312;2023-07-31T04:51:28;98499.38;;;20.92;64.04
27144;BME280;14672;50.250;8.312;2023-07-31T04:53:56;98500.31;;;21.05;63.69
27144;BME280;14672;50.250;8.312;2023-07-31T04:56:21;98502.38;;;20.81;64.52
27144;BME280;14672;50.250;8.312;2023-07-31T04:58:47;98503.25;;;21.00;63.62
27144;BME280;14672;50.250;8.312;2023-07-31T05:01:16;98492.97;;;21.04;63.43
27144;BME280;14672;50.250;8.312;2023-07-31T05:03:44;98500.88;;;20.98;64.09
27144;BME280;14672;50.250;8.312;2023-07-31T05:06:10;98497.38;;;20.81;64.44
27144;BME280;14672;50.250;8.312;2023-07-31T05:08:35;98500.34;;;21.00;64.07
27144;BME280;14672;50.250;8.312;2023-07-31T05:11:02;98496.97;;;20.96;64.56
27144;BME280;14672;50.250;8.312;2023-07-31T05:13:28;98498.75;;;21.04;64.25
27144;BME280;14672;50.250;8.312;2023-07-31T05:15:54;98495.19;;;20.93;64.50
27144;BME280;14672;50.250;8.312;2023-07-31T05:18:19;98498.25;;;21.00;64.13
27144;BME280;14672;50.250;8.312;2023-07-31T05:20:45;98495.06;;;21.04;63.87
27144;BME280;14672;50.250;8.312;2023-07-31T05:23:11;98487.28;;;20.93;64.35
27144;BME280;14672;50.250;8.312;2023-07-31T05:25:36;98487.97;;;21.05;64.01
27144;BME280;14672;50.250;8.312;2023-07-31T05:28:02;98487.41;;;21.12;63.94
27144;BME280;14672;50.250;8.312;2023-07-31T05:30:30;98481.94;;;21.03;64.19
27144;BME280;14672;50.250;8.312;2023-07-31T05:32:56;98487.50;;;21.01;64.17
27144;BME280;14672;50.250;8.312;2023-07-31T05:35:22;98479.59;;;21.01;64.32
27144;BME280;14672;50.250;8.312;2023-07-31T05:37:48;98490.28;;;21.12;63.92
27144;BME280;14672;50.250;8.312;2023-07-31T05:40:14;98492.38;;;21.12;64.17
27144;BME280;14672;50.250;8.312;2023-07-31T05:42:40;98490.78;;;21.10;63.99
27144;BME280;14672;50.250;8.312;2023-07-31T05:45:07;98496.97;;;20.96;64.29
27144;BME280;14672;50.250;8.312;2023-07-31T05:47:33;98486.63;;;21.12;64.44
27144;BME280;14672;50.250;8.312;2023-07-31T05:49:59;98477.13;;;21.11;64.65
27144;BME280;14672;50.250;8.312;2023-07-31T05:52:25;98475.31;;;21.14;64.72
27144;BME280;14672;50.250;8.312;2023-07-31T05:54:50;98476.91;;;21.09;64.93
27144;BME280;14672;50.250;8.312;2023-07-31T05:57:17;98471.63;;;21.13;64.49
27144;BME280;14672;50.250;8.312;2023-07-31T05:59:42;98472.44;;;21.14;64.32
27144;BME280;14672;50.250;8.312;2023-07-31T06:02:08;98473.22;;;21.08;64.00
27144;BME280;14672;50.250;8.312;2023-07-31T06:04:34;98479.75;;;21.15;63.82
27144;BME280;14672;50.250;8.312;2023-07-31T06:07:00;98476.03;;;21.20;63.48
27144;BME280;14672;50.250;8.312;2023-07-31T06:09:26;98463.16;;;21.21;63.26
27144;BME280;14672;50.250;8.312;2023-07-31T06:11:52;98468.38;;;21.22;63.33
27144;BME280;14672;50.250;8.312;2023-07-31T06:14:18;98469.63;;;21.27;62.79
27144;BME280;14672;50.250;8.312;2023-07-31T06:16:46;98460.25;;;21.21;62.84
27144;BME280;14672;50.250;8.312;2023-07-31T06:19:12;98472.59;;;21.21;62.65
27144;BME280;14672;50.250;8.312;2023-07-31T06:21:41;98463.34;;;21.28;62.38
27144;BME280;14672;50.250;8.312;2023-07-31T06:24:10;98452.44;;;21.16;61.53
27144;BME280;14672;50.250;8.312;2023-07-31T06:26:37;98455.84;;;21.14;61.46
27144;BME280;14672;50.250;8.312;2023-07-31T06:29:03;98456.34;;;21.18;61.36
27144;BME280;14672;50.250;8.312;2023-07-31T06:31:29;98461.13;;;21.10;61.95
27144;BME280;14672;50.250;8.312;2023-07-31T06:33:55;98454.59;;;21.09;61.54
27144;BME280;14672;50.250;8.312;2023-07-31T06:36:21;98452.97;;;21.14;61.39
27144;BME280;14672;50.250;8.312;2023-07-31T06:38:46;98451.03;;;20.98;61.49
27144;BME280;14672;50.250;8.312;2023-07-31T06:41:12;98460.56;;;21.17;61.48
27144;BME280;14672;50.250;8.312;2023-07-31T06:43:38;98467.63;;;21.22;61.93
27144;BME280;14672;50.250;8.312;2023-07-31T06:46:07;98462.31;;;21.26;61.79
27144;BME280;14672;50.250;8.312;2023-07-31T06:48:33;98462.00;;;21.29;61.72
27144;BME280;14672;50.250;8.312;2023-07-31T06:51:00;98462.09;;;21.42;61.17
27144;BME280;14672;50.250;8.312;2023-07-31T06:53:26;98454.00;;;21.41;60.88
27144;BME280;14672;50.250;8.312;2023-07-31T06:55:52;98455.16;;;21.51;60.74
27144;BME280;14672;50.250;8.312;2023-07-31T06:58:18;98455.34;;;21.59;60.73
27144;BME280;14672;50.250;8.312;2023-07-31T07:00:44;98451.75;;;21.71;60.36
27144;BME280;14672;50.250;8.312;2023-07-31T07:03:09;98435.34;;;21.61;60.73
27144;BME280;14672;50.250;8.312;2023-07-31T07:05:35;98439.41;;;21.52;60.53
27144;BME280;14672;50.250;8.312;2023-07-31T07:08:01;98434.78;;;21.62;60.88
27144;BME280;14672;50.250;8.312;2023-07-31T07:10:27;98433.00;;;21.78;60.71
27144;BME280;14672;50.250;8.312;2023-07-31T07:12:54;98429.25;;;21.64;60.63
27144;BME280;14672;50.250;8.312;2023-07-31T07:15:23;98428.94;;;21.68;61.02
27144;BME280;14672;50.250;8.312;2023-07-31T07:17:49;98425.63;;;21.39;60.95
27144;BME280;14672;50.250;8.312;2023-07-31T07:20:14;98428.94;;;21.68;60.70
27144;BME280;14672;50.250;8.312;2023-07-31T07:22:40;98427.38;;;21.67;60.84
27144;BME280;14672;50.250;8.312;2023-07-31T07:25:09;98426.13;;;21.62;60.94
27144;BME280;14672;50.250;8.312;2023-07-31T07:27:35;98428.63;;;21.52;61.50
27144;BME280;14672;50.250;8.312;2023-07-31T07:30:01;98426.75;;;21.55;61.92
27144;BME280;14672;50.250;8.312;2023-07-31T07:32:26;98424.75;;;21.69;61.57
27144;BME280;14672;50.250;8.312;2023-07-31T07:34:52;98418.59;;;21.35;61.97
27144;BME280;14672;50.250;8.312;2023-07-31T07:37:18;98414.72;;;21.51;61.75
27144;BME280;14672;50.250;8.312;2023-07-31T07:39:44;98416.28;;;21.52;61.18
27144;BME280;14672;50.250;8.312;2023-07-31T07:42:13;98427.84;;;21.52;61.25
27144;BME280;14672;50.250;8.312;2023-07-31T07:44:39;98428.47;;;21.64;60.74
27144;BME280;14672;50.250;8.312;2023-07-31T07:47:05;98426.06;;;21.68;60.93
27144;BME280;14672;50.250;8.312;2023-07-31T07:49:36;98420.34;;;21.62;61.49
27144;BME280;14672;50.250;8.312;2023-07-31T07:52:03;98424.56;;;21.61;61.13
27144;BME280;14672;50.250;8.312;2023-07-31T07:54:28;98419.41;;;21.73;60.85
27144;BME280;14672;50.250;8.312;2023-07-31T07:56:54;98414.50;;;21.68;61.14
27144;BME280;14672;50.250;8.312;2023-07-31T07:59:20;98415.44;;;21.76;60.93
27144;BME280;14672;50.250;8.312;2023-07-31T08:01:46;98419.59;;;21.62;61.02
27144;BME280;14672;50.250;8.312;2023-07-31T08:04:11;98418.25;;;21.81;60.72
27144;BME280;14672;50.250;8.312;2023-07-31T08:06:37;98415.19;;;21.74;61.14
27144;BME280;14672;50.250;8.312;2023-07-31T08:09:03;98412.63;;;21.89;60.79
27144;BME280;14672;50.250;8.312;2023-07-31T08:11:32;98401.06;;;21.89;60.94
27144;BME280;14672;50.250;8.312;2023-07-31T08:13:58;98402.44;;;21.82;61.30
27144;BME280;14672;50.250;8.312;2023-07-31T08:16:24;98401.56;;;21.93;60.91
27144;BME280;14672;50.250;8.312;2023-07-31T08:18:49;98393.69;;;21.88;61.14
27144;BME280;14672;50.250;8.312;2023-07-31T08:21:18;98382.69;;;22.05;60.44
27144;BME280;14672;50.250;8.312;2023-07-31T08:23:44;98392.25;;;22.00;61.03
27144;BME280;14672;50.250;8.312;2023-07-31T08:26:17;98383.00;;;21.83;60.84
27144;BME280;14672;50.250;8.312;2023-07-31T08:28:44;98381.13;;;22.04;60.46
27144;BME280;14672;50.250;8.312;2023-07-31T08:31:11;98390.50;;;22.10;60.56
27144;BME280;14672;50.250;8.312;2023-07-31T08:33:38;98399.41;;;22.12;59.79
27144;BME280;14672;50.250;8.312;2023-07-31T08:36:04;98392.97;;;22.19;59.66
27144;BME280;14672;50.250;8.312;2023-07-31T08:38:30;98392.97;;;22.19;59.98
27144;BME280;14672;50.250;8.312;2023-07-31T08:40:59;98403.03;;;21.99;60.29
27144;BME280;14672;50.250;8.312;2023-07-31T08:43:26;98401.13;;;22.21;59.54
27144;BME280;14672;50.250;8.312;2023-07-31T08:45:54;98389.69;;;22.28;60.05
27144;BME280;14672;50.250;8.312;2023-07-31T08:48:22;98402.38;;;22.25;59.34
27144;BME280;14672;50.250;8.312;2023-07-31T08:50:48;98399.47;;;22.25;59.23
27144;BME280;14672;50.250;8.312;2023-07-31T08:53:14;98398.13;;;22.26;59.92
27144;BME280;14672;50.250;8.312;2023-07-31T08:55:40;98384.44;;;22.27;59.51
27144;BME280;14672;50.250;8.312;2023-07-31T08:58:06;98387.66;;;22.23;59.21
27144;BME280;14672;50.250;8.312;2023-07-31T09:00:32;98385.75;;;22.26;59.12
27144;BME280;14672;50.250;8.312;2023-07-31T09:03:15;98381.88;;;22.23;59.60
27144;BME280;14672;50.250;8.312;2023-07-31T09:05:46;98388.31;;;22.16;59.72
27144;BME280;14672;50.250;8.312;2023-07-31T09:08:15;98370.69;;;22.14;60.20
27144;BME280;14672;50.250;8.312;2023-07-31T09:10:44;98377.59;;;22.11;61.16
27144;BME280;14672;50.250;8.312;2023-07-31T09:13:14;98378.31;;;22.17;61.82
27144;BME280;14672;50.250;8.312;2023-07-31T09:15:43;98371.59;;;22.09;61.95
27144;BME280;14672;50.250;8.312;2023-07-31T09:18:09;98372.28;;;22.15;62.48
27144;BME280;14672;50.250;8.312;2023-07-31T09:20:36;98376.63;;;22.22;63.12
27144;BME280;14672;50.250;8.312;2023-07-31T09:23:13;98384.66;;;21.97;62.91
27144;BME280;14672;50.250;8.312;2023-07-31T09:25:43;98379.75;;;21.92;62.68
27144;BME280;14672;50.250;8.312;2023-07-31T09:28:11;98376.50;;;22.14;62.21
27144;BME280;14672;50.250;8.312;2023-07-31T09:30:55;98385.72;;;22.13;61.63
27144;BME280;14672;50.250;8.312;2023-07-31T09:33:21;98375.81;;;22.08;62.21
27144;BME280;14672;50.250;8.312;2023-07-31T09:35:49;98382.13;;;22.25;62.95
27144;BME280;14672;50.250;8.312;2023-07-31T09:38:16;98380.13;;;22.33;62.41
27144;BME280;14672;50.250;8.312;2023-07-31T09:40:45;98367.81;;;22.14;62.35
27144;BME280;14672;50.250;8.312;2023-07-31T09:43:20;98361.75;;;21.99;62.20
27144;BME280;14672;50.250;8.312;2023-07-31T09:45:46;98360.94;;;22.17;61.77
27144;BME280;14672;50.250;8.312;2023-07-31T09:48:17;98349.75;;;22.40;61.13
27144;BME280;14672;50.250;8.312;2023-07-31T09:50:48;98342.53;;;22.46;61.30
27144;BME280;14672;50.250;8.312;2023-07-31T09:53:15;98339.13;;;22.61;61.50
27144;BME280;14672;50.250;8.312;2023-07-31T09:55:42;98331.81;;;22.86;61.16
27144;BME280;14672;50.250;8.312;2023-07-31T09:58:10;98326.63;;;22.66;60.87
27144;BME280;14672;50.250;8.312;2023-07-31T10:00:39;98328.56;;;22.90;60.84
27144;BME280;14672;50.250;8.312;2023-07-31T10:03:10;98323.91;;;22.87;60.76
27144;BME280;14672;50.250;8.312;2023-07-31T10:05:47;98321.44;;;22.78;60.65
27144;BME280;14672;50.250;8.312;2023-07-31T10:08:20;98320.66;;;22.77;59.44
27144;BME280;14672;50.250;8.312;2023-07-31T10:10:47;98320.34;;;22.81;59.87
27144;BME280;14672;50.250;8.312;2023-07-31T10:13:14;98307.41;;;22.95;58.56
27144;BME280;14672;50.250;8.312;2023-07-31T10:15:41;98313.53;;;22.78;57.95
27144;BME280;14672;50.250;8.312;2023-07-31T10:18:09;98303.41;;;22.72;58.37
27144;BME280;14672;50.250;8.312;2023-07-31T10:20:36;98307.84;;;22.86;57.45
27144;BME280;14672;50.250;8.312;2023-07-31T10:23:03;98310.41;;;22.89;57.10
27144;BME280;14672;50.250;8.312;2023-07-31T10:25:29;98300.94;;;23.02;57.22
27144;BME280;14672;50.250;8.312;2023-07-31T10:27:57;98300.84;;;22.94;56.80
27144;BME280;14672;50.250;8.312;2023-07-31T10:30:28;98301.16;;;22.65;56.92
27144;BME280;14672;50.250;8.312;2023-07-31T10:32:56;98306.06;;;22.83;56.79
27144;BME280;14672;50.250;8.312;2023-07-31T10:35:22;98294.00;;;22.66;57.16
27144;BME280;14672;50.250;8.312;2023-07-31T10:37:48;98298.16;;;22.83;57.04
27144;BME280;14672;50.250;8.312;2023-07-31T10:40:19;98297.72;;;22.92;57.75
27144;BME280;14672;50.250;8.312;2023-07-31T10:42:52;98295.56;;;23.19;57.47
27144;BME280;14672;50.250;8.312;2023-07-31T10:45:36;98292.31;;;23.36;57.52
27144;BME280;14672;50.250;8.312;2023-07-31T10:48:12;98286.44;;;23.15;56.50
27144;BME280;14672;50.250;8.312;2023-07-31T10:50:50;98292.44;;;23.30;56.31
27144;BME280;14672;50.250;8.312;2023-07-31T10:53:32;98285.50;;;23.33;56.46
27144;BME280;14672;50.250;8.312;2023-07-31T10:56:09;98272.47;;;23.40;56.09
27144;BME280;14672;50.250;8.312;2023-07-31T10:58:38;98280.25;;;23.45;56.32
27144;BME280;14672;50.250;8.312;2023-07-31T11:01:05;98274.59;;;23.26;56.30
27144;BME280;14672;50.250;8.312;2023-07-31T11:03:50;98265.19;;;23.60;55.88
27144;BME280;14672;50.250;8.312;2023-07-31T11:06:19;98265.53;;;23.56;55.53
27144;BME280;14672;50.250;8.312;2023-07-31T11:08:48;98254.91;;;23.59;54.66
27144;BME280;14672;50.250;8.312;2023-07-31T11:11:19;98254.94;;;23.79;54.53
27144;BME280;14672;50.250;8.312;2023-07-31T11:13:50;98258.25;;;23.63;54.60
27144;BME280;14672;50.250;8.312;2023-07-31T11:16:22;98252.91;;;23.54;53.69
27144;BME280;14672;50.250;8.312;2023-07-31T11:18:49;98254.63;;;23.70;53.17
27144;BME280;14672;50.250;8.312;2023-07-31T11:21:24;98260.81;;;23.87;53.54
27144;BME280;14672;50.250;8.312;2023-07-31T11:23:53;98267.56;;;23.69;53.49
27144;BME280;14672;50.250;8.312;2023-07-31T11:26:23;98262.31;;;23.33;53.10
27144;BME280;14672;50.250;8.312;2023-07-31T11:28:50;98264.88;;;23.50;53.41
27144;BME280;14672;50.250;8.312;2023-07-31T11:31:17;98265.59;;;23.64;53.50
27144;BME280;14672;50.250;8.312;2023-07-31T11:33:44;98265.34;;;23.75;53.51
27144;BME280;14672;50.250;8.312;2023-07-31T11:36:19;98261.25;;;23.91;54.10
27144;BME280;14672;50.250;8.312;2023-07-31T11:38:45;98269.09;;;23.83;54.09
27144;BME280;14672;50.250;8.312;2023-07-31T11:41:15;98258.69;;;23.88;53.23
27144;BME280;14672;50.250;8.312;2023-07-31T11:43:48;98254.59;;;23.83;53.54
27144;BME280;14672;50.250;8.312;2023-07-31T11:46:13;98254.09;;;23.92;52.99
27144;BME280;14672;50.250;8.312;2023-07-31T11:48:40;98238.28;;;23.59;53.09
27144;BME280;14672;50.250;8.312;2023-07-31T11:51:10;98243.44;;;23.53;54.12
27144;BME280;14672;50.250;8.312;2023-07-31T11:53:51;98249.53;;;23.63;53.72
27144;BME280;14672;50.250;8.312;2023-07-31T11:56:20;98237.66;;;23.74;53.78
27144;BME280;14672;50.250;8.312;2023-07-31T11:58:55;98242.31;;;23.77;53.50
27144;BME280;14672;50.250;8.312;2023-07-31T12:01:23;98246.84;;;23.65;53.77
27144;BME280;14672;50.250;8.312;2023-07-31T12:03:50;98239.44;;;23.56;54.01
27144;BME280;14672;50.250;8.312;2023-07-31T12:06:16;98237.16;;;23.62;53.94
27144;BME280;14672;50.250;8.312;2023-07-31T12:08:42;98235.13;;;23.70;53.18
27144;BME280;14672;50.250;8.312;2023-07-31T12:11:09;98231.50;;;23.57;54.22
27144;BME280;14672;50.250;8.312;2023-07-31T12:13:35;98230.56;;;23.62;53.41
27144;BME280;14672;50.250;8.312;2023-07-31T12:16:03;98230.03;;;23.84;53.16
27144;BME280;14672;50.250;8.312;2023-07-31T12:18:34;98227.28;;;23.99;52.82
27144;BME280;14672;50.250;8.312;2023-07-31T12:21:04;98237.13;;;23.96;52.95
27144;BME280;14672;50.250;8.312;2023-07-31T12:23:33;98226.78;;;24.08;52.58
27144;BME280;14672;50.250;8.312;2023-07-31T12:26:15;98218.28;;;24.10;52.99
27144;BME280;14672;50.250;8.312;2023-07-31T12:28:46;98213.34;;;24.18;52.58
27144;BME280;14672;50.250;8.312;2023-07-31T12:31:16;98208.41;;;24.13;52.83
27144;BME280;14672;50.250;8.312;2023-07-31T12:33:47;98195.66;;;23.88;52.55
27144;BME280;14672;50.250;8.312;2023-07-31T12:36:20;98193.13;;;24.13;52.79
27144;BME280;14672;50.250;8.312;2023-07-31T12:38:46;98196.94;;;24.28;52.62
27144;BME280;14672;50.250;8.312;2023-07-31T12:41:12;98192.88;;;24.24;52.28
27144;BME280;14672;50.250;8.312;2023-07-31T12:43:41;98195.16;;;24.46;52.79
27144;BME280;14672;50.250;8.312;2023-07-31T12:46:08;98193.91;;;24.34;52.57
27144;BME280;14672;50.250;8.312;2023-07-31T12:48:34;98180.69;;;24.25;52.16
27144;BME280;14672;50.250;8.312;2023-07-31T12:51:00;98180.56;;;24.67;52.42
27144;BME280;14672;50.250;8.312;2023-07-31T12:53:27;98175.91;;;24.64;52.31
27144;BME280;14672;50.250;8.312;2023-07-31T12:55:53;98169.97;;;24.49;51.66
27144;BME280;14672;50.250;8.312;2023-07-31T12:58:18;98174.41;;;24.78;51.22
27144;BME280;14672;50.250;8.312;2023-07-31T13:00:44;98176.75;;;24.44;52.17
27144;BME280;14672;50.250;8.312;2023-07-31T13:03:10;98180.38;;;24.72;51.81
27144;BME280;14672;50.250;8.312;2023-07-31T13:05:38;98178.47;;;24.75;51.56
27144;BME280;14672;50.250;8.312;2023-07-31T13:08:04;98173.34;;;24.60;51.12